sensor_id;sensor_type;location;lat;lon;timestamp;P1;durP1;ratioP1;P2;durP2;ratioP2
3953;SDS011;1991;48.682;9.030;2022-07-06T00:01:20;5.45;;;1.60;;
3953;SDS011;1991;48.682;9.030;2022-07-06T00:03:46;3.15;;;1.95;;
3953;SDS011;1991;48.682;9.030;2022-07-06T00:06:11;5.15;;;1.98;;
3953;SDS011;1991;48.682;9.030;2022-07-06T00:08:37;3.88;;;1.70;;
3953;SDS011;1991;48.682;9.030;2022-07-06T00:11:04;7.80;;;2.13;;
3953;SDS011;1991;48.682;9.030;2022-07-06T00:13:30;5.85;;;1.63;;
3953;SDS011;1991;48.682;9.030;2022-07-06T00:15:56;3.38;;;1.63;;
3953;SDS011;1991;48.682;9.030;2022-07-06T00:18:21;4.18;;;1.70;;
3953;SDS011;1991;48.682;9.030;2022-07-06T00:20:47;2.63;;;1.50;;
3953;SDS011;1991;48.682;9.030;2022-07-06T00:23:13;4.07;;;2.22;;
3953;SDS011;1991;48.682;9.030;2022-07-06T00:25:38;2.42;;;1.58;;
3953;SDS011;1991;48.682;9.030;2022-07-06T00:28:04;2.78;;;1.70;;
3953;SDS011;1991;48.682;9.030;2022-07-06T00:30:29;2.55;;;1.58;;
3953;SDS011;1991;48.682;9.030;2022-07-06T00:32:55;4.22;;;1.55;;
3953;SDS011;1991;48.682;9.030;2022-07-06T00:35:23;3.65;;;1.70;;
3953;SDS011;1991;48.682;9.030;2022-07-06T00:37:49;1.73;;;1.50;;
3953;SDS011;1991;48.682;9.030;2022-07-06T00:40:15;3.15;;;1.70;;
3953;SDS011;1991;48.682;9.030;2022-07-06T00:42:41;3.05;;;1.70;;
3953;SDS011;1991;48.682;9.030;2022-07-06T00:45:08;1.85;;;1.63;;
3953;SDS011;1991;48.682;9.030;2022-07-06T00:47:35;2.33;;;1.60;;
3953;SDS011;1991;48.682;9.030;2022-07-06T00:50:01;2.42;;;1.63;;
3953;SDS011;1991;48.682;9.030;2022-07-06T00:52:40;5.18;;;1.55;;
3953;SDS011;1991;48.682;9.030;2022-07-06T00:55:07;3.95;;;1.67;;
3953;SDS011;1991;48.682;9.030;2022-07-06T00:57:37;3.28;;;1.58;;
3953;SDS011;1991;48.682;9.030;2022-07-06T01:00:04;2.90;;;1.90;;
3953;SDS011;1991;48.682;9.030;2022-07-06T01:02:32;4.70;;;1.80;;
3953;SDS011;1991;48.682;9.030;2022-07-06T01:04:58;4.97;;;1.85;;
3953;SDS011;1991;48.682;9.030;2022-07-06T01:07:24;2.28;;;1.30;;
3953;SDS011;1991;48.682;9.030;2022-07-06T01:09:50;4.00;;;1.63;;
3953;SDS011;1991;48.682;9.030;2022-07-06T01:12:17;3.28;;;1.77;;
3953;SDS011;1991;48.682;9.030;2022-07-06T01:14:43;4.47;;;1.95;;
3953;SDS011;1991;48.682;9.030;2022-07-06T01:17:09;7.10;;;1.60;;
3953;SDS011;1991;48.682;9.030;2022-07-06T01:19:35;6.88;;;1.60;;
3953;SDS011;1991;48.682;9.030;2022-07-06T01:22:01;4.03;;;1.70;;
3953;SDS011;1991;48.682;9.030;2022-07-06T01:24:27;5.63;;;1.40;;
3953;SDS011;1991;48.682;9.030;2022-07-06T01:26:53;3.45;;;1.45;;
3953;SDS011;1991;48.682;9.030;2022-07-06T01:29:18;2.85;;;1.52;;
3953;SDS011;1991;48.682;9.030;2022-07-06T01:31:48;2.15;;;1.48;;
3953;SDS011;1991;48.682;9.030;2022-07-06T01:34:17;1.63;;;1.15;;
3953;SDS011;1991;48.682;9.030;2022-07-06T01:36:43;5.47;;;1.70;;
3953;SDS011;1991;48.682;9.030;2022-07-06T01:39:09;3.33;;;1.60;;
3953;SDS011;1991;48.682;9.030;2022-07-06T01:41:35;2.38;;;1.60;;
3953;SDS011;1991;48.682;9.030;2022-07-06T01:44:02;2.17;;;1.50;;
3953;SDS011;1991;48.682;9.030;2022-07-06T01:46:28;3.42;;;1.80;;
3953;SDS011;1991;48.682;9.030;2022-07-06T01:48:54;3.80;;;1.55;;
3953;SDS011;1991;48.682;9.030;2022-07-06T01:51:19;4.82;;;1.73;;
3953;SDS011;1991;48.682;9.030;2022-07-06T01:53:45;3.67;;;1.55;;
3953;SDS011;1991;48.682;9.030;2022-07-06T01:56:11;2.83;;;1.52;;
3953;SDS011;1991;48.682;9.030;2022-07-06T01:58:37;4.15;;;1.70;;
3953;SDS011;1991;48.682;9.030;2022-07-06T02:01:07;3.00;;;1.50;;
3953;SDS011;1991;48.682;9.030;2022-07-06T02:03:34;3.10;;;1.42;;
3953;SDS011;1991;48.682;9.030;2022-07-06T02:05:59;4.43;;;1.77;;
3953;SDS011;1991;48.682;9.030;2022-07-06T02:08:25;2.22;;;1.38;;
3953;SDS011;1991;48.682;9.030;2022-07-06T02:10:51;3.05;;;1.50;;
3953;SDS011;1991;48.682;9.030;2022-07-06T02:13:16;3.28;;;1.55;;
3953;SDS011;1991;48.682;9.030;2022-07-06T02:15:42;5.88;;;1.92;;
3953;SDS011;1991;48.682;9.030;2022-07-06T02:18:08;2.28;;;1.55;;
3953;SDS011;1991;48.682;9.030;2022-07-06T02:20:33;4.25;;;1.52;;
3953;SDS011;1991;48.682;9.030;2022-07-06T02:22:59;3.03;;;1.50;;
3953;SDS011;1991;48.682;9.030;2022-07-06T02:25:24;9.02;;;1.90;;
3953;SDS011;1991;48.682;9.030;2022-07-06T02:27:50;8.25;;;1.88;;
3953;SDS011;1991;48.682;9.030;2022-07-06T02:30:16;2.15;;;1.70;;
3953;SDS011;1991;48.682;9.030;2022-07-06T02:32:42;6.55;;;1.60;;
3953;SDS011;1991;48.682;9.030;2022-07-06T02:35:08;5.00;;;1.60;;
3953;SDS011;1991;48.682;9.030;2022-07-06T02:37:33;4.82;;;1.60;;
3953;SDS011;1991;48.682;9.030;2022-07-06T02:39:59;5.40;;;1.60;;
3953;SDS011;1991;48.682;9.030;2022-07-06T02:42:25;4.47;;;1.70;;
3953;SDS011;1991;48.682;9.030;2022-07-06T02:44:52;3.45;;;1.65;;
3953;SDS011;1991;48.682;9.030;2022-07-06T02:47:18;6.80;;;1.65;;
3953;SDS011;1991;48.682;9.030;2022-07-06T02:49:44;3.80;;;1.65;;
3953;SDS011;1991;48.682;9.030;2022-07-06T02:52:09;3.78;;;2.03;;
3953;SDS011;1991;48.682;9.030;2022-07-06T02:54:35;4.00;;;1.85;;
3953;SDS011;1991;48.682;9.030;2022-07-06T02:57:01;2.28;;;1.58;;
3953;SDS011;1991;48.682;9.030;2022-07-06T02:59:26;3.03;;;2.00;;
3953;SDS011;1991;48.682;9.030;2022-07-06T03:01:52;4.85;;;1.95;;
3953;SDS011;1991;48.682;9.030;2022-07-06T03:04:17;3.72;;;1.98;;
3953;SDS011;1991;48.682;9.030;2022-07-06T03:06:43;4.50;;;1.75;;
3953;SDS011;1991;48.682;9.030;2022-07-06T03:09:08;2.33;;;1.80;;
3953;SDS011;1991;48.682;9.030;2022-07-06T03:11:34;2.33;;;1.98;;
3953;SDS011;1991;48.682;9.030;2022-07-06T03:14:02;4.00;;;1.90;;
3953;SDS011;1991;48.682;9.030;2022-07-06T03:16:28;4.03;;;2.47;;
3953;SDS011;1991;48.682;9.030;2022-07-06T03:18:54;2.78;;;1.67;;
3953;SDS011;1991;48.682;9.030;2022-07-06T03:21:19;3.22;;;2.00;;
3953;SDS011;1991;48.682;9.030;2022-07-06T03:23:45;5.20;;;1.90;;
3953;SDS011;1991;48.682;9.030;2022-07-06T03:26:11;4.82;;;2.20;;
3953;SDS011;1991;48.682;9.030;2022-07-06T03:28:36;4.95;;;2.00;;
3953;SDS011;1991;48.682;9.030;2022-07-06T03:31:02;3.42;;;2.35;;
3953;SDS011;1991;48.682;9.030;2022-07-06T03:33:27;3.80;;;1.73;;
3953;SDS011;1991;48.682;9.030;2022-07-06T03:35:53;3.42;;;2.03;;
3953;SDS011;1991;48.682;9.030;2022-07-06T03:38:18;2.78;;;2.10;;
3953;SDS011;1991;48.682;9.030;2022-07-06T03:40:44;9.35;;;2.70;;
3953;SDS011;1991;48.682;9.030;2022-07-06T03:43:10;6.72;;;2.42;;
3953;SDS011;1991;48.682;9.030;2022-07-06T03:45:35;5.93;;;2.60;;
3953;SDS011;1991;48.682;9.030;2022-07-06T03:48:01;4.00;;;2.28;;
3953;SDS011;1991;48.682;9.030;2022-07-06T03:50:27;6.03;;;2.72;;
3953;SDS011;1991;48.682;9.030;2022-07-06T03:52:52;4.07;;;2.63;;
3953;SDS011;1991;48.682;9.030;2022-07-06T03:55:18;5.30;;;2.38;;
3953;SDS011;1991;48.682;9.030;2022-07-06T03:57:43;5.80;;;2.47;;
3953;SDS011;1991;48.682;9.030;2022-07-06T04:00:09;5.07;;;2.40;;
3953;SDS011;1991;48.682;9.030;2022-07-06T04:02:35;3.50;;;2.80;;
3953;SDS011;1991;48.682;9.030;2022-07-06T04:05:01;7.80;;;2.58;;
3953;SDS011;1991;48.682;9.030;2022-07-06T04:07:27;5.60;;;2.95;;
3953;SDS011;1991;48.682;9.030;2022-07-06T04:09:52;9.20;;;2.80;;
3953;SDS011;1991;48.682;9.030;2022-07-06T04:12:18;4.88;;;2.70;;
3953;SDS011;1991;48.682;9.030;2022-07-06T04:14:43;4.32;;;2.63;;
3953;SDS011;1991;48.682;9.030;2022-07-06T04:17:09;4.80;;;2.83;;
3953;SDS011;1991;48.682;9.030;2022-07-06T04:19:54;6.88;;;2.92;;
3953;SDS011;1991;48.682;9.030;2022-07-06T04:22:19;5.05;;;2.67;;
3953;SDS011;1991;48.682;9.030;2022-07-06T04:24:45;4.95;;;2.63;;
3953;SDS011;1991;48.682;9.030;2022-07-06T04:27:10;6.72;;;2.55;;
3953;SDS011;1991;48.682;9.030;2022-07-06T04:29:36;7.63;;;2.90;;
3953;SDS011;1991;48.682;9.030;2022-07-06T04:32:02;7.85;;;2.90;;
3953;SDS011;1991;48.682;9.030;2022-07-06T04:34:28;5.50;;;3.08;;
3953;SDS011;1991;48.682;9.030;2022-07-06T04:36:53;5.70;;;3.45;;
3953;SDS011;1991;48.682;9.030;2022-07-06T04:39:19;5.57;;;3.25;;
3953;SDS011;1991;48.682;9.030;2022-07-06T04:41:45;6.38;;;3.03;;
3953;SDS011;1991;48.682;9.030;2022-07-06T04:44:10;5.30;;;2.85;;
3953;SDS011;1991;48.682;9.030;2022-07-06T04:46:36;3.03;;;2.63;;
3953;SDS011;1991;48.682;9.030;2022-07-06T04:49:01;4.43;;;2.70;;
3953;SDS011;1991;48.682;9.030;2022-07-06T04:51:27;5.03;;;3.20;;
3953;SDS011;1991;48.682;9.030;2022-07-06T04:53:52;3.58;;;3.05;;
3953;SDS011;1991;48.682;9.030;2022-07-06T04:56:18;6.00;;;3.65;;
3953;SDS011;1991;48.682;9.030;2022-07-06T04:58:43;7.25;;;3.28;;
3953;SDS011;1991;48.682;9.030;2022-07-06T05:01:09;4.65;;;3.05;;
3953;SDS011;1991;48.682;9.030;2022-07-06T05:03:35;6.18;;;3.30;;
3953;SDS011;1991;48.682;9.030;2022-07-06T05:06:04;6.18;;;3.22;;
3953;SDS011;1991;48.682;9.030;2022-07-06T05:08:30;7.50;;;3.08;;
3953;SDS011;1991;48.682;9.030;2022-07-06T05:10:56;5.75;;;3.00;;
3953;SDS011;1991;48.682;9.030;2022-07-06T05:13:22;6.63;;;3.55;;
3953;SDS011;1991;48.682;9.030;2022-07-06T05:15:47;5.68;;;3.25;;
3953;SDS011;1991;48.682;9.030;2022-07-06T05:18:13;6.85;;;3.22;;
3953;SDS011;1991;48.682;9.030;2022-07-06T05:20:39;4.35;;;3.30;;
3953;SDS011;1991;48.682;9.030;2022-07-06T05:23:04;3.40;;;3.03;;
3953;SDS011;1991;48.682;9.030;2022-07-06T05:25:30;8.90;;;3.53;;
3953;SDS011;1991;48.682;9.030;2022-07-06T05:27:56;6.10;;;3.10;;
3953;SDS011;1991;48.682;9.030;2022-07-06T05:30:22;6.43;;;3.17;;
3953;SDS011;1991;48.682;9.030;2022-07-06T05:32:47;4.07;;;2.80;;
3953;SDS011;1991;48.682;9.030;2022-07-06T05:35:13;8.25;;;3.28;;
3953;SDS011;1991;48.682;9.030;2022-07-06T05:37:38;5.60;;;3.40;;
3953;SDS011;1991;48.682;9.030;2022-07-06T05:40:04;9.27;;;3.83;;
3953;SDS011;1991;48.682;9.030;2022-07-06T05:42:30;3.63;;;2.65;;
3953;SDS011;1991;48.682;9.030;2022-07-06T05:44:56;4.28;;;3.17;;
3953;SDS011;1991;48.682;9.030;2022-07-06T05:47:22;5.03;;;2.90;;
3953;SDS011;1991;48.682;9.030;2022-07-06T05:50:06;6.97;;;3.20;;
3953;SDS011;1991;48.682;9.030;2022-07-06T05:52:38;4.18;;;2.58;;
3953;SDS011;1991;48.682;9.030;2022-07-06T05:55:05;8.48;;;3.00;;
3953;SDS011;1991;48.682;9.030;2022-07-06T05:57:31;8.23;;;3.13;;
3953;SDS011;1991;48.682;9.030;2022-07-06T05:59:57;4.90;;;2.78;;
3953;SDS011;1991;48.682;9.030;2022-07-06T06:02:22;6.57;;;2.92;;
3953;SDS011;1991;48.682;9.030;2022-07-06T06:04:48;5.90;;;3.05;;
3953;SDS011;1991;48.682;9.030;2022-07-06T06:07:14;5.80;;;2.50;;
3953;SDS011;1991;48.682;9.030;2022-07-06T06:09:39;4.60;;;2.63;;
3953;SDS011;1991;48.682;9.030;2022-07-06T06:12:05;5.88;;;2.45;;
3953;SDS011;1991;48.682;9.030;2022-07-06T06:14:31;4.20;;;2.40;;
3953;SDS011;1991;48.682;9.030;2022-07-06T06:16:57;5.53;;;2.97;;
3953;SDS011;1991;48.682;9.030;2022-07-06T06:19:23;4.28;;;2.40;;
3953;SDS011;1991;48.682;9.030;2022-07-06T06:21:49;2.65;;;2.08;;
3953;SDS011;1991;48.682;9.030;2022-07-06T06:24:16;2.58;;;2.33;;
3953;SDS011;1991;48.682;9.030;2022-07-06T06:26:42;4.93;;;2.42;;
3953;SDS011;1991;48.682;9.030;2022-07-06T06:29:08;6.32;;;2.42;;
3953;SDS011;1991;48.682;9.030;2022-07-06T06:31:34;4.28;;;2.40;;
3953;SDS011;1991;48.682;9.030;2022-07-06T06:33:59;3.95;;;2.38;;
3953;SDS011;1991;48.682;9.030;2022-07-06T06:36:25;4.65;;;2.17;;
3953;SDS011;1991;48.682;9.030;2022-07-06T06:38:51;2.67;;;2.17;;
3953;SDS011;1991;48.682;9.030;2022-07-06T06:41:16;7.18;;;2.17;;
3953;SDS011;1991;48.682;9.030;2022-07-06T06:43:43;5.80;;;2.10;;
3953;SDS011;1991;48.682;9.030;2022-07-06T06:46:11;3.95;;;1.95;;
3953;SDS011;1991;48.682;9.030;2022-07-06T06:48:36;3.97;;;2.00;;
3953;SDS011;1991;48.682;9.030;2022-07-06T06:51:03;6.82;;;2.45;;
3953;SDS011;1991;48.682;9.030;2022-07-06T06:53:29;6.25;;;2.08;;
3953;SDS011;1991;48.682;9.030;2022-07-06T06:55:55;5.05;;;2.13;;
3953;SDS011;1991;48.682;9.030;2022-07-06T06:58:20;5.38;;;2.30;;
3953;SDS011;1991;48.682;9.030;2022-07-06T07:00:46;5.57;;;2.05;;
3953;SDS011;1991;48.682;9.030;2022-07-06T07:03:12;6.75;;;2.25;;
3953;SDS011;1991;48.682;9.030;2022-07-06T07:05:38;4.32;;;2.00;;
3953;SDS011;1991;48.682;9.030;2022-07-06T07:08:04;2.55;;;1.70;;
3953;SDS011;1991;48.682;9.030;2022-07-06T07:10:30;3.05;;;1.70;;
3953;SDS011;1991;48.682;9.030;2022-07-06T07:12:55;4.57;;;1.95;;
3953;SDS011;1991;48.682;9.030;2022-07-06T07:15:22;6.55;;;1.90;;
3953;SDS011;1991;48.682;9.030;2022-07-06T07:17:48;4.63;;;1.98;;
3953;SDS011;1991;48.682;9.030;2022-07-06T07:20:13;5.82;;;2.22;;
3953;SDS011;1991;48.682;9.030;2022-07-06T07:22:39;6.72;;;2.10;;
3953;SDS011;1991;48.682;9.030;2022-07-06T07:25:05;7.90;;;1.95;;
3953;SDS011;1991;48.682;9.030;2022-07-06T07:27:31;3.97;;;1.67;;
3953;SDS011;1991;48.682;9.030;2022-07-06T07:29:57;5.00;;;1.95;;
3953;SDS011;1991;48.682;9.030;2022-07-06T07:32:22;6.30;;;2.15;;
3953;SDS011;1991;48.682;9.030;2022-07-06T07:34:48;5.63;;;2.10;;
3953;SDS011;1991;48.682;9.030;2022-07-06T07:37:13;6.78;;;2.00;;
3953;SDS011;1991;48.682;9.030;2022-07-06T07:39:39;3.25;;;1.80;;
3953;SDS011;1991;48.682;9.030;2022-07-06T07:42:05;5.43;;;2.15;;
3953;SDS011;1991;48.682;9.030;2022-07-06T07:44:30;3.67;;;1.77;;
3953;SDS011;1991;48.682;9.030;2022-07-06T07:46:56;3.63;;;1.70;;
3953;SDS011;1991;48.682;9.030;2022-07-06T07:49:21;5.15;;;1.75;;
3953;SDS011;1991;48.682;9.030;2022-07-06T07:51:48;3.08;;;1.88;;
3953;SDS011;1991;48.682;9.030;2022-07-06T07:54:14;4.78;;;1.90;;
3953;SDS011;1991;48.682;9.030;2022-07-06T07:56:39;4.60;;;1.80;;
3953;SDS011;1991;48.682;9.030;2022-07-06T07:59:05;3.03;;;1.90;;
3953;SDS011;1991;48.682;9.030;2022-07-06T08:01:32;8.10;;;2.20;;
3953;SDS011;1991;48.682;9.030;2022-07-06T08:03:58;6.32;;;2.13;;
3953;SDS011;1991;48.682;9.030;2022-07-06T08:06:24;2.90;;;1.90;;
3953;SDS011;1991;48.682;9.030;2022-07-06T08:08:50;10.23;;;2.38;;
3953;SDS011;1991;48.682;9.030;2022-07-06T08:11:16;4.32;;;1.67;;
3953;SDS011;1991;48.682;9.030;2022-07-06T08:13:41;5.80;;;1.67;;
3953;SDS011;1991;48.682;9.030;2022-07-06T08:16:07;6.25;;;1.88;;
3953;SDS011;1991;48.682;9.030;2022-07-06T08:18:34;4.35;;;1.95;;
3953;SDS011;1991;48.682;9.030;2022-07-06T08:21:00;12.95;;;2.38;;
3953;SDS011;1991;48.682;9.030;2022-07-06T08:23:26;13.63;;;2.72;;
3953;SDS011;1991;48.682;9.030;2022-07-06T08:25:52;5.88;;;1.85;;
3953;SDS011;1991;48.682;9.030;2022-07-06T08:28:17;5.00;;;2.30;;
3953;SDS011;1991;48.682;9.030;2022-07-06T08:30:43;4.47;;;1.70;;
3953;SDS011;1991;48.682;9.030;2022-07-06T08:33:09;7.78;;;1.80;;
3953;SDS011;1991;48.682;9.030;2022-07-06T08:35:34;3.05;;;1.80;;
3953;SDS011;1991;48.682;9.030;2022-07-06T08:38:00;3.40;;;1.80;;
3953;SDS011;1991;48.682;9.030;2022-07-06T08:40:26;3.40;;;1.73;;
3953;SDS011;1991;48.682;9.030;2022-07-06T08:42:57;5.28;;;2.10;;
3953;SDS011;1991;48.682;9.030;2022-07-06T08:45:25;4.40;;;1.92;;
3953;SDS011;1991;48.682;9.030;2022-07-06T08:47:51;6.15;;;1.83;;
3953;SDS011;1991;48.682;9.030;2022-07-06T08:50:19;3.75;;;1.60;;
3953;SDS011;1991;48.682;9.030;2022-07-06T08:52:45;3.63;;;1.90;;
3953;SDS011;1991;48.682;9.030;2022-07-06T08:55:13;4.20;;;1.80;;
3953;SDS011;1991;48.682;9.030;2022-07-06T08:57:39;3.55;;;2.00;;
3953;SDS011;1991;48.682;9.030;2022-07-06T09:00:08;5.32;;;2.08;;
3953;SDS011;1991;48.682;9.030;2022-07-06T09:02:35;2.38;;;1.60;;
3953;SDS011;1991;48.682;9.030;2022-07-06T09:05:02;4.32;;;1.70;;
3953;SDS011;1991;48.682;9.030;2022-07-06T09:07:28;5.47;;;1.90;;
3953;SDS011;1991;48.682;9.030;2022-07-06T09:09:55;4.72;;;1.83;;
3953;SDS011;1991;48.682;9.030;2022-07-06T09:12:21;4.63;;;1.80;;
3953;SDS011;1991;48.682;9.030;2022-07-06T09:14:47;4.82;;;1.95;;
3953;SDS011;1991;48.682;9.030;2022-07-06T09:17:13;4.70;;;1.70;;
3953;SDS011;1991;48.682;9.030;2022-07-06T09:19:38;2.28;;;1.67;;
3953;SDS011;1991;48.682;9.030;2022-07-06T09:22:04;5.47;;;1.73;;
3953;SDS011;1991;48.682;9.030;2022-07-06T09:24:30;8.70;;;1.85;;
3953;SDS011;1991;48.682;9.030;2022-07-06T09:26:56;4.57;;;2.05;;
3953;SDS011;1991;48.682;9.030;2022-07-06T09:29:29;1.88;;;1.52;;
3953;SDS011;1991;48.682;9.030;2022-07-06T09:31:59;10.98;;;1.70;;
3953;SDS011;1991;48.682;9.030;2022-07-06T09:34:39;5.90;;;1.85;;
3953;SDS011;1991;48.682;9.030;2022-07-06T09:37:12;9.40;;;1.77;;
3953;SDS011;1991;48.682;9.030;2022-07-06T09:39:38;6.03;;;1.42;;
3953;SDS011;1991;48.682;9.030;2022-07-06T09:42:05;4.88;;;2.72;;
3953;SDS011;1991;48.682;9.030;2022-07-06T09:44:36;9.48;;;2.10;;
3953;SDS011;1991;48.682;9.030;2022-07-06T09:47:04;5.15;;;1.80;;
3953;SDS011;1991;48.682;9.030;2022-07-06T09:49:34;3.53;;;1.98;;
3953;SDS011;1991;48.682;9.030;2022-07-06T09:52:01;6.07;;;1.80;;
3953;SDS011;1991;48.682;9.030;2022-07-06T09:54:29;5.40;;;1.80;;
3953;SDS011;1991;48.682;9.030;2022-07-06T09:56:55;3.67;;;1.85;;
3953;SDS011;1991;48.682;9.030;2022-07-06T09:59:22;5.10;;;1.80;;
3953;SDS011;1991;48.682;9.030;2022-07-06T10:01:50;4.72;;;1.95;;
3953;SDS011;1991;48.682;9.030;2022-07-06T10:04:17;4.43;;;2.15;;
3953;SDS011;1991;48.682;9.030;2022-07-06T10:06:45;6.05;;;2.03;;
3953;SDS011;1991;48.682;9.030;2022-07-06T10:09:13;5.28;;;2.17;;
3953;SDS011;1991;48.682;9.030;2022-07-06T10:11:51;2.97;;;1.48;;
3953;SDS011;1991;48.682;9.030;2022-07-06T10:14:26;3.90;;;1.98;;
3953;SDS011;1991;48.682;9.030;2022-07-06T10:16:56;3.35;;;1.70;;
3953;SDS011;1991;48.682;9.030;2022-07-06T10:19:23;6.53;;;1.90;;
3953;SDS011;1991;48.682;9.030;2022-07-06T10:21:49;5.30;;;1.98;;
3953;SDS011;1991;48.682;9.030;2022-07-06T10:24:16;3.70;;;1.77;;
3953;SDS011;1991;48.682;9.030;2022-07-06T10:26:44;4.63;;;1.90;;
3953;SDS011;1991;48.682;9.030;2022-07-06T10:29:10;5.43;;;2.25;;
3953;SDS011;1991;48.682;9.030;2022-07-06T10:31:38;4.63;;;1.90;;
3953;SDS011;1991;48.682;9.030;2022-07-06T10:34:11;6.40;;;1.92;;
3953;SDS011;1991;48.682;9.030;2022-07-06T10:36:40;3.92;;;2.30;;
3953;SDS011;1991;48.682;9.030;2022-07-06T10:39:07;3.80;;;1.92;;
3953;SDS011;1991;48.682;9.030;2022-07-06T10:41:52;5.05;;;2.03;;
3953;SDS011;1991;48.682;9.030;2022-07-06T10:44:19;4.30;;;2.13;;
3953;SDS011;1991;48.682;9.030;2022-07-06T10:46:53;8.65;;;2.15;;
3953;SDS011;1991;48.682;9.030;2022-07-06T10:49:20;5.03;;;1.70;;
3953;SDS011;1991;48.682;9.030;2022-07-06T10:51:47;3.78;;;2.10;;
3953;SDS011;1991;48.682;9.030;2022-07-06T10:54:14;5.75;;;2.03;;
3953;SDS011;1991;48.682;9.030;2022-07-06T10:56:48;3.58;;;2.00;;
3953;SDS011;1991;48.682;9.030;2022-07-06T10:59:16;11.93;;;2.75;;
3953;SDS011;1991;48.682;9.030;2022-07-06T11:04:44;7.53;;;2.50;;
3953;SDS011;1991;48.682;9.030;2022-07-06T11:07:12;7.05;;;1.65;;
3953;SDS011;1991;48.682;9.030;2022-07-06T11:09:39;3.75;;;1.73;;
3953;SDS011;1991;48.682;9.030;2022-07-06T11:12:15;4.20;;;2.40;;
3953;SDS011;1991;48.682;9.030;2022-07-06T11:14:43;5.40;;;2.50;;
3953;SDS011;1991;48.682;9.030;2022-07-06T11:17:09;10.45;;;2.17;;
3953;SDS011;1991;48.682;9.030;2022-07-06T11:19:36;7.97;;;2.72;;
3953;SDS011;1991;48.682;9.030;2022-07-06T11:22:08;14.05;;;3.40;;
3953;SDS011;1991;48.682;9.030;2022-07-06T11:24:39;11.10;;;2.97;;
3953;SDS011;1991;48.682;9.030;2022-07-06T11:27:06;6.05;;;2.70;;
3953;SDS011;1991;48.682;9.030;2022-07-06T11:29:32;6.82;;;2.50;;
3953;SDS011;1991;48.682;9.030;2022-07-06T11:32:05;8.68;;;2.15;;
3953;SDS011;1991;48.682;9.030;2022-07-06T11:34:34;5.88;;;2.50;;
3953;SDS011;1991;48.682;9.030;2022-07-06T11:37:09;11.23;;;2.50;;
3953;SDS011;1991;48.682;9.030;2022-07-06T11:39:39;9.63;;;2.75;;
3953;SDS011;1991;48.682;9.030;2022-07-06T11:42:09;4.53;;;2.22;;
3953;SDS011;1991;48.682;9.030;2022-07-06T11:44:36;9.90;;;2.70;;
3953;SDS011;1991;48.682;9.030;2022-07-06T11:47:03;8.73;;;1.95;;
3953;SDS011;1991;48.682;9.030;2022-07-06T11:49:30;6.63;;;2.38;;
3953;SDS011;1991;48.682;9.030;2022-07-06T11:51:56;4.00;;;2.15;;
3953;SDS011;1991;48.682;9.030;2022-07-06T11:54:23;5.07;;;2.25;;
3953;SDS011;1991;48.682;9.030;2022-07-06T11:56:50;7.20;;;2.38;;
3953;SDS011;1991;48.682;9.030;2022-07-06T11:59:24;8.18;;;2.22;;
3953;SDS011;1991;48.682;9.030;2022-07-06T12:02:10;12.05;;;2.60;;
3953;SDS011;1991;48.682;9.030;2022-07-06T12:04:38;4.57;;;3.00;;
3953;SDS011;1991;48.682;9.030;2022-07-06T12:07:06;5.40;;;2.10;;
3953;SDS011;1991;48.682;9.030;2022-07-06T12:09:33;14.35;;;2.78;;
3953;SDS011;1991;48.682;9.030;2022-07-06T12:12:01;6.03;;;2.17;;
3953;SDS011;1991;48.682;9.030;2022-07-06T12:14:30;4.30;;;2.35;;
3953;SDS011;1991;48.682;9.030;2022-07-06T12:17:07;3.42;;;2.25;;
3953;SDS011;1991;48.682;9.030;2022-07-06T12:19:34;6.03;;;1.85;;
3953;SDS011;1991;48.682;9.030;2022-07-06T12:22:01;8.98;;;2.60;;
3953;SDS011;1991;48.682;9.030;2022-07-06T12:24:28;7.07;;;2.00;;
3953;SDS011;1991;48.682;9.030;2022-07-06T12:26:57;6.88;;;2.42;;
3953;SDS011;1991;48.682;9.030;2022-07-06T12:29:34;11.13;;;2.63;;
3953;SDS011;1991;48.682;9.030;2022-07-06T12:31:59;5.35;;;2.50;;
3953;SDS011;1991;48.682;9.030;2022-07-06T12:34:27;8.82;;;2.40;;
3953;SDS011;1991;48.682;9.030;2022-07-06T12:36:57;6.13;;;3.33;;
3953;SDS011;1991;48.682;9.030;2022-07-06T12:39:25;11.25;;;2.80;;
3953;SDS011;1991;48.682;9.030;2022-07-06T12:42:02;6.30;;;2.47;;
3953;SDS011;1991;48.682;9.030;2022-07-06T12:44:29;7.82;;;2.65;;
3953;SDS011;1991;48.682;9.030;2022-07-06T12:47:03;5.50;;;2.38;;
3953;SDS011;1991;48.682;9.030;2022-07-06T12:49:30;8.07;;;2.53;;
3953;SDS011;1991;48.682;9.030;2022-07-06T12:52:01;6.60;;;2.10;;
3953;SDS011;1991;48.682;9.030;2022-07-06T12:54:37;9.70;;;2.22;;
3953;SDS011;1991;48.682;9.030;2022-07-06T12:57:19;7.68;;;2.30;;
3953;SDS011;1991;48.682;9.030;2022-07-06T13:02:20;7.28;;;2.00;;
3953;SDS011;1991;48.682;9.030;2022-07-06T13:05:02;7.53;;;2.15;;
3953;SDS011;1991;48.682;9.030;2022-07-06T13:07:30;7.00;;;1.58;;
3953;SDS011;1991;48.682;9.030;2022-07-06T13:09:57;3.88;;;1.90;;
3953;SDS011;1991;48.682;9.030;2022-07-06T13:12:23;3.28;;;2.10;;
3953;SDS011;1991;48.682;9.030;2022-07-06T13:14:50;4.25;;;1.90;;
3953;SDS011;1991;48.682;9.030;2022-07-06T13:17:16;3.60;;;1.90;;
3953;SDS011;1991;48.682;9.030;2022-07-06T13:19:42;5.05;;;1.90;;
3953;SDS011;1991;48.682;9.030;2022-07-06T13:22:08;3.28;;;1.73;;
3953;SDS011;1991;48.682;9.030;2022-07-06T13:24:33;8.82;;;2.10;;
3953;SDS011;1991;48.682;9.030;2022-07-06T13:26:59;8.35;;;2.17;;
3953;SDS011;1991;48.682;9.030;2022-07-06T13:29:25;8.93;;;2.00;;
3953;SDS011;1991;48.682;9.030;2022-07-06T13:31:51;5.70;;;2.08;;
3953;SDS011;1991;48.682;9.030;2022-07-06T13:34:17;5.80;;;1.88;;
3953;SDS011;1991;48.682;9.030;2022-07-06T13:36:43;6.07;;;2.33;;
3953;SDS011;1991;48.682;9.030;2022-07-06T13:39:09;8.88;;;2.00;;
3953;SDS011;1991;48.682;9.030;2022-07-06T13:41:34;5.93;;;1.80;;
3953;SDS011;1991;48.682;9.030;2022-07-06T13:44:00;2.22;;;1.52;;
3953;SDS011;1991;48.682;9.030;2022-07-06T13:46:30;3.70;;;1.70;;
3953;SDS011;1991;48.682;9.030;2022-07-06T13:48:56;8.73;;;1.85;;
3953;SDS011;1991;48.682;9.030;2022-07-06T13:51:23;7.75;;;1.88;;
3953;SDS011;1991;48.682;9.030;2022-07-06T13:53:51;13.10;;;2.20;;
3953;SDS011;1991;48.682;9.030;2022-07-06T13:56:17;4.68;;;1.73;;
3953;SDS011;1991;48.682;9.030;2022-07-06T13:58:43;7.65;;;2.00;;
3953;SDS011;1991;48.682;9.030;2022-07-06T14:01:09;5.30;;;1.70;;
3953;SDS011;1991;48.682;9.030;2022-07-06T14:03:35;6.72;;;2.40;;
3953;SDS011;1991;48.682;9.030;2022-07-06T14:06:02;5.10;;;1.70;;
3953;SDS011;1991;48.682;9.030;2022-07-06T14:08:29;3.25;;;1.60;;
3953;SDS011;1991;48.682;9.030;2022-07-06T14:10:55;3.72;;;1.60;;
3953;SDS011;1991;48.682;9.030;2022-07-06T14:13:21;3.33;;;1.65;;
3953;SDS011;1991;48.682;9.030;2022-07-06T14:15:48;3.22;;;2.03;;
3953;SDS011;1991;48.682;9.030;2022-07-06T14:18:14;3.65;;;1.60;;
3953;SDS011;1991;48.682;9.030;2022-07-06T14:20:42;6.63;;;1.55;;
3953;SDS011;1991;48.682;9.030;2022-07-06T14:23:09;9.73;;;2.03;;
3953;SDS011;1991;48.682;9.030;2022-07-06T14:25:36;5.65;;;2.03;;
3953;SDS011;1991;48.682;9.030;2022-07-06T14:28:01;3.88;;;1.40;;
3953;SDS011;1991;48.682;9.030;2022-07-06T14:30:27;2.97;;;1.67;;
3953;SDS011;1991;48.682;9.030;2022-07-06T14:32:53;3.83;;;1.50;;
3953;SDS011;1991;48.682;9.030;2022-07-06T14:35:19;6.65;;;1.70;;
3953;SDS011;1991;48.682;9.030;2022-07-06T14:37:44;5.65;;;1.50;;
3953;SDS011;1991;48.682;9.030;2022-07-06T14:40:10;4.35;;;1.58;;
3953;SDS011;1991;48.682;9.030;2022-07-06T14:42:36;5.28;;;1.70;;
3953;SDS011;1991;48.682;9.030;2022-07-06T14:45:01;2.90;;;1.23;;
3953;SDS011;1991;48.682;9.030;2022-07-06T14:47:27;5.90;;;1.33;;
3953;SDS011;1991;48.682;9.030;2022-07-06T14:49:52;3.10;;;1.20;;
3953;SDS011;1991;48.682;9.030;2022-07-06T14:52:19;6.22;;;1.60;;
3953;SDS011;1991;48.682;9.030;2022-07-06T14:54:45;2.30;;;1.33;;
3953;SDS011;1991;48.682;9.030;2022-07-06T14:57:10;2.08;;;1.27;;
3953;SDS011;1991;48.682;9.030;2022-07-06T14:59:36;2.42;;;1.60;;
3953;SDS011;1991;48.682;9.030;2022-07-06T15:02:02;5.13;;;1.42;;
3953;SDS011;1991;48.682;9.030;2022-07-06T15:04:28;8.82;;;1.60;;
3953;SDS011;1991;48.682;9.030;2022-07-06T15:06:54;3.85;;;1.73;;
3953;SDS011;1991;48.682;9.030;2022-07-06T15:09:19;6.03;;;1.42;;
3953;SDS011;1991;48.682;9.030;2022-07-06T15:11:45;1.88;;;1.23;;
3953;SDS011;1991;48.682;9.030;2022-07-06T15:14:11;1.88;;;1.30;;
3953;SDS011;1991;48.682;9.030;2022-07-06T15:16:37;2.60;;;1.20;;
3953;SDS011;1991;48.682;9.030;2022-07-06T15:19:03;2.08;;;1.30;;